createdAt,value
2019-05-20T00:00:11.666Z,46.10
2019-05-20T00:01:11.575Z,46.80
2019-05-20T00:02:24.334Z,46.10
2019-05-20T00:03:12.554Z,47.30
2019-05-20T00:04:11.540Z,49.10
2019-05-20T00:05:11.533Z,46.30
2019-05-20T00:06:11.590Z,46.30
2019-05-20T00:07:11.511Z,45.20
2019-05-20T00:08:11.497Z,45.30
2019-05-20T00:09:11.487Z,45.20
2019-05-20T00:10:11.502Z,45.20
2019-05-20T00:11:11.480Z,46.10
2019-05-20T00:12:11.460Z,48.20
2019-05-20T00:13:11.439Z,48.80
2019-05-20T00:14:11.433Z,46.70
2019-05-20T00:15:11.417Z,46.50
2019-05-20T00:16:11.423Z,47.10
2019-05-20T00:17:11.401Z,47.20
2019-05-20T00:18:11.398Z,46.80
2019-05-20T00:19:11.373Z,46.40
2019-05-20T00:20:11.374Z,49.50
2019-05-20T00:21:11.382Z,46.80
2019-05-20T00:22:11.356Z,47.70
2019-05-20T00:23:11.370Z,49.50
2019-05-20T00:24:11.329Z,48.70
2019-05-20T00:25:11.307Z,49.60
2019-05-20T00:26:11.295Z,47.70
2019-05-20T00:27:11.284Z,49.20
2019-05-20T00:28:11.278Z,46.10
2019-05-20T00:29:11.279Z,47.90
2019-05-20T00:30:11.252Z,47.20
2019-05-20T00:31:11.245Z,47.50
2019-05-20T00:32:11.241Z,47.10
2019-05-20T00:33:11.232Z,50.20
2019-05-20T00:34:11.220Z,49.20
2019-05-20T00:35:11.199Z,48.80
2019-05-20T00:36:11.184Z,51.80
2019-05-20T00:37:11.189Z,51.10
2019-05-20T00:38:11.171Z,47.20
2019-05-20T00:39:11.166Z,48.60
2019-05-20T00:40:11.411Z,49.30
2019-05-20T00:41:11.132Z,48.80
2019-05-20T00:42:11.124Z,47.80
2019-05-20T00:43:11.124Z,49.20
2019-05-20T00:44:11.096Z,50.30
2019-05-20T00:45:11.094Z,49.80
2019-05-20T00:46:11.081Z,50.20
2019-05-20T00:47:11.076Z,49.10
2019-05-20T00:48:11.091Z,50.20
2019-05-20T00:49:11.044Z,49.70
2019-05-20T00:50:11.037Z,49.60
2019-05-20T00:51:11.033Z,50.80
2019-05-20T00:52:11.012Z,51.20
2019-05-20T00:53:11.003Z,53.00
2019-05-20T00:54:11.027Z,53.30
2019-05-20T00:55:10.986Z,51.00
2019-05-20T00:56:10.974Z,50.60
2019-05-20T00:57:10.962Z,52.90
2019-05-20T00:58:10.951Z,53.80
2019-05-20T00:59:10.932Z,52.60
2019-05-20T01:00:10.936Z,52.60
2019-05-20T01:01:11.306Z,53.90
2019-05-20T01:02:10.899Z,53.80
2019-05-20T01:03:10.894Z,52.60
2019-05-20T01:04:10.901Z,52.70
2019-05-20T01:05:10.866Z,53.40
2019-05-20T01:06:10.864Z,52.90
2019-05-20T01:07:10.863Z,53.50
2019-05-20T01:08:10.840Z,52.20
2019-05-20T01:09:10.823Z,53.50
2019-05-20T01:10:10.864Z,51.20
2019-05-20T01:11:10.800Z,52.60
2019-05-20T01:12:10.794Z,48.90
2019-05-20T01:13:10.789Z,51.20
2019-05-20T01:14:10.775Z,53.80
2019-05-20T01:15:10.763Z,51.10
2019-05-20T01:16:10.746Z,51.80
2019-05-20T01:17:10.738Z,50.50
2019-05-20T01:18:10.728Z,51.90
2019-05-20T01:19:10.714Z,52.60
2019-05-20T01:20:10.701Z,53.30
2019-05-20T01:21:10.701Z,50.50
2019-05-20T01:22:10.678Z,50.10
2019-05-20T01:23:10.667Z,50.10
2019-05-20T01:24:10.707Z,51.20
2019-05-20T01:25:10.658Z,50.50
2019-05-20T01:26:10.675Z,52.30
2019-05-20T01:27:10.628Z,51.20
2019-05-20T01:28:10.613Z,50.50
2019-05-20T01:29:10.600Z,50.10
2019-05-20T01:30:10.597Z,50.90
2019-05-20T01:31:10.588Z,51.90
2019-05-20T01:32:10.578Z,50.70
2019-05-20T01:33:14.276Z,52.00
2019-05-20T01:34:10.555Z,48.90
2019-05-20T01:35:10.546Z,48.70
2019-05-20T01:36:10.532Z,48.70
2019-05-20T01:37:10.521Z,48.70
2019-05-20T01:38:10.508Z,50.20
2019-05-20T01:39:10.500Z,49.30
2019-05-20T01:40:10.485Z,49.60
2019-05-20T01:41:10.480Z,50.90
2019-05-20T01:42:10.462Z,50.90
2019-05-20T01:43:10.466Z,50.60
2019-05-20T01:44:10.436Z,47.40
2019-05-20T01:45:10.426Z,47.20
2019-05-20T01:46:10.420Z,49.50
2019-05-20T01:47:10.411Z,48.50
2019-05-20T01:48:10.435Z,49.20
2019-05-20T01:49:10.387Z,51.50
2019-05-20T01:50:10.379Z,49.10
2019-05-20T01:51:10.359Z,49.80
2019-05-20T01:52:10.348Z,48.20
2019-05-20T01:53:10.346Z,48.00
2019-05-20T01:54:10.339Z,46.20
2019-05-20T01:55:10.321Z,47.10
2019-05-20T01:56:10.305Z,48.90
2019-05-20T01:57:10.300Z,50.00
2019-05-20T01:58:10.328Z,48.20
2019-05-20T01:59:10.273Z,49.10
2019-05-20T02:00:10.265Z,48.70
2019-05-20T02:01:10.262Z,49.80
2019-05-20T02:02:10.239Z,48.00
2019-05-20T02:03:10.229Z,48.90
2019-05-20T02:04:10.228Z,49.40
2019-05-20T02:05:10.208Z,50.70
2019-05-20T02:06:10.207Z,52.20
2019-05-20T02:07:10.188Z,51.30
2019-05-20T02:08:10.180Z,51.90
2019-05-20T02:09:10.216Z,53.30
2019-05-20T02:10:10.159Z,51.30
2019-05-20T02:11:10.141Z,53.40
2019-05-20T02:12:10.135Z,53.50
2019-05-20T02:13:10.125Z,51.50
2019-05-20T02:14:10.131Z,52.20
2019-05-20T02:15:10.108Z,51.80
2019-05-20T02:16:10.093Z,51.80
2019-05-20T02:17:10.081Z,53.70
2019-05-20T02:18:10.074Z,50.80
2019-05-20T02:19:10.063Z,53.20
2019-05-20T02:20:10.066Z,52.60
2019-05-20T02:21:10.061Z,50.80
2019-05-20T02:22:10.027Z,50.90
2019-05-20T02:23:10.019Z,52.00
2019-05-20T02:24:10.005Z,53.20
2019-05-20T02:25:09.993Z,50.80
2019-05-20T02:26:09.998Z,53.50
2019-05-20T02:27:10.009Z,53.10
2019-05-20T02:28:09.953Z,52.10
2019-05-20T02:29:10.063Z,52.10
2019-05-20T02:30:09.934Z,52.40
2019-05-20T02:31:09.926Z,53.00
2019-05-20T02:32:09.914Z,54.50
2019-05-20T02:33:09.899Z,52.50
2019-05-20T02:34:09.892Z,52.30
2019-05-20T02:35:09.898Z,53.80
2019-05-20T02:36:09.909Z,53.60
2019-05-20T02:37:09.856Z,50.70
2019-05-20T02:38:09.854Z,52.00
2019-05-20T02:39:09.836Z,53.20
2019-05-20T02:40:09.831Z,53.80
2019-05-20T02:41:09.818Z,53.40
2019-05-20T02:42:09.815Z,54.10
2019-05-20T02:43:09.798Z,55.10
2019-05-20T02:44:09.779Z,52.40
2019-05-20T02:45:09.789Z,51.50
2019-05-20T02:46:09.762Z,53.00
2019-05-20T02:47:09.791Z,51.30
2019-05-20T02:48:09.743Z,51.70
2019-05-20T02:49:09.725Z,51.80
2019-05-20T02:50:09.713Z,54.10
2019-05-20T02:51:09.711Z,52.50
2019-05-20T02:52:09.691Z,51.80
2019-05-20T02:53:09.687Z,53.70
2019-05-20T02:54:09.668Z,52.60
2019-05-20T02:55:09.667Z,54.00
2019-05-20T02:56:09.702Z,52.00
2019-05-20T02:57:09.651Z,51.70
2019-05-20T02:58:09.626Z,53.00
2019-05-20T02:59:09.614Z,51.70
2019-05-20T03:00:09.608Z,53.90
2019-05-20T03:01:09.594Z,53.00
2019-05-20T03:02:09.592Z,53.40
2019-05-20T03:03:09.585Z,52.10
2019-05-20T03:04:11.949Z,52.00
2019-05-20T03:05:09.557Z,52.60
2019-05-20T03:06:09.541Z,51.30
2019-05-20T03:07:09.546Z,52.40
2019-05-20T03:08:09.518Z,52.90
2019-05-20T03:09:12.088Z,52.90
2019-05-20T03:10:09.491Z,53.30
2019-05-20T03:11:09.497Z,53.80
2019-05-20T03:12:09.506Z,55.10
2019-05-20T03:13:09.457Z,54.30
2019-05-20T03:14:09.456Z,55.40
2019-05-20T03:15:09.487Z,53.40
2019-05-20T03:16:09.429Z,55.90
2019-05-20T03:17:09.420Z,55.20
2019-05-20T03:18:09.418Z,54.20
2019-05-20T03:19:09.419Z,55.00
2019-05-20T03:20:09.399Z,54.60
2019-05-20T03:21:09.388Z,53.30
2019-05-20T03:22:09.364Z,55.00
2019-05-20T03:23:09.357Z,52.20
2019-05-20T03:24:09.344Z,53.60
2019-05-20T03:25:09.341Z,52.80
2019-05-20T03:26:09.320Z,53.50
2019-05-20T03:27:09.307Z,55.10
2019-05-20T03:28:09.317Z,53.40
2019-05-20T03:29:09.286Z,52.10
2019-05-20T03:30:09.317Z,52.60
2019-05-20T03:31:09.259Z,52.30
2019-05-20T03:32:09.266Z,52.90
2019-05-20T03:33:09.243Z,52.00
2019-05-20T03:34:09.241Z,51.80
2019-05-20T03:35:09.224Z,53.00
2019-05-20T03:36:09.242Z,52.90
2019-05-20T03:37:09.196Z,52.50
2019-05-20T03:38:09.189Z,52.10
2019-05-20T03:39:09.176Z,53.20
2019-05-20T03:40:09.180Z,55.50
2019-05-20T03:41:09.147Z,55.20
2019-05-20T03:42:09.181Z,54.30
2019-05-20T03:43:09.130Z,50.80
2019-05-20T03:44:09.119Z,52.50
2019-05-20T03:45:09.140Z,52.00
2019-05-20T03:46:09.097Z,49.00
2019-05-20T03:47:09.091Z,50.60
2019-05-20T03:48:09.076Z,50.30
2019-05-20T03:49:09.060Z,52.50
2019-05-20T03:50:09.051Z,50.90
2019-05-20T03:51:09.041Z,51.90
2019-05-20T03:52:09.026Z,50.20
2019-05-20T03:53:09.064Z,49.90
2019-05-20T03:54:09.011Z,51.40
2019-05-20T03:55:09.024Z,51.50
2019-05-20T03:56:09.029Z,49.90
2019-05-20T03:57:08.990Z,52.10
2019-05-20T03:58:12.972Z,51.40
2019-05-20T03:59:08.956Z,50.50
2019-05-20T04:00:08.945Z,53.20
2019-05-20T04:01:08.928Z,50.00
2019-05-20T04:02:08.937Z,50.10
2019-05-20T04:03:08.908Z,49.90
2019-05-20T04:04:08.904Z,48.50
2019-05-20T04:05:08.887Z,49.50
2019-05-20T04:06:08.873Z,50.60
2019-05-20T04:07:08.869Z,50.90
2019-05-20T04:08:08.855Z,49.40
2019-05-20T04:09:08.883Z,50.40
2019-05-20T04:10:08.860Z,50.10
2019-05-20T04:11:08.823Z,47.50
2019-05-20T04:12:08.807Z,50.80
2019-05-20T04:13:08.796Z,50.40
2019-05-20T04:14:08.788Z,50.60
2019-05-20T04:15:08.781Z,48.60
2019-05-20T04:16:08.775Z,47.90
2019-05-20T04:17:08.775Z,49.30
2019-05-20T04:18:08.760Z,49.80
2019-05-20T04:19:08.731Z,48.90
2019-05-20T04:20:08.726Z,49.00
2019-05-20T04:21:08.714Z,48.60
2019-05-20T04:22:08.710Z,48.40
2019-05-20T04:23:08.698Z,46.70
2019-05-20T04:24:08.691Z,47.30
2019-05-20T04:25:08.677Z,46.10
2019-05-20T04:26:08.658Z,46.00
2019-05-20T04:27:08.656Z,46.70
2019-05-20T04:28:08.640Z,45.60
2019-05-20T04:29:08.624Z,45.20
2019-05-20T04:30:08.635Z,45.50
2019-05-20T04:31:08.606Z,44.70
2019-05-20T04:32:08.605Z,43.40
2019-05-20T04:33:08.598Z,44.70
2019-05-20T04:34:08.569Z,45.10
2019-05-20T04:35:21.258Z,43.90
2019-05-20T04:36:09.549Z,44.40
2019-05-20T04:37:08.543Z,44.30
2019-05-20T04:38:08.537Z,44.10
2019-05-20T04:39:08.521Z,44.70
2019-05-20T04:40:08.517Z,43.70
2019-05-20T04:41:08.504Z,43.40
2019-05-20T04:42:08.509Z,45.30
2019-05-20T04:43:08.479Z,44.50
2019-05-20T04:44:08.472Z,43.90
2019-05-20T04:45:08.464Z,43.00
2019-05-20T04:46:08.449Z,45.50
2019-05-20T04:47:08.462Z,44.50
2019-05-20T04:48:08.420Z,46.50
2019-05-20T04:49:08.419Z,42.60
2019-05-20T04:50:08.417Z,43.70
2019-05-20T04:51:08.390Z,42.60
2019-05-20T04:52:08.384Z,43.70
2019-05-20T04:53:08.376Z,44.30
2019-05-20T04:54:08.354Z,43.00
2019-05-20T04:55:08.353Z,41.60
2019-05-20T04:56:08.333Z,43.20
2019-05-20T04:57:08.325Z,43.50
2019-05-20T04:58:08.325Z,45.10
2019-05-20T04:59:08.311Z,43.30
2019-05-20T05:00:08.318Z,42.10
2019-05-20T05:01:08.279Z,42.60
2019-05-20T05:02:08.275Z,42.20
2019-05-20T05:03:08.253Z,43.50
2019-05-20T05:04:08.249Z,44.40
2019-05-20T05:05:08.231Z,44.30
2019-05-20T05:06:08.235Z,42.90
2019-05-20T05:07:08.212Z,42.10
2019-05-20T05:08:08.203Z,40.90
2019-05-20T05:09:08.193Z,41.70
2019-05-20T05:10:08.214Z,42.30
2019-05-20T05:11:08.178Z,40.70
2019-05-20T05:12:08.150Z,40.70
2019-05-20T05:13:08.140Z,39.70
2019-05-20T05:14:08.136Z,39.30
2019-05-20T05:15:08.325Z,40.60
2019-05-20T05:16:08.192Z,38.90
2019-05-20T05:17:08.104Z,39.50
2019-05-20T05:18:08.091Z,39.80
2019-05-20T05:19:08.105Z,39.50
2019-05-20T05:20:16.824Z,38.20
2019-05-20T05:21:09.091Z,38.80
2019-05-20T05:22:08.044Z,38.40
2019-05-20T05:23:08.033Z,38.70
2019-05-20T05:24:08.041Z,36.70
2019-05-20T05:25:08.011Z,37.90
2019-05-20T05:26:08.004Z,38.50
2019-05-20T05:27:08.004Z,37.50
2019-05-20T05:28:07.976Z,37.80
2019-05-20T05:29:07.962Z,37.30
2019-05-20T05:30:08.025Z,38.40
2019-05-20T05:31:07.940Z,37.40
2019-05-20T05:32:07.942Z,37.70
2019-05-20T05:33:07.934Z,38.70
2019-05-20T05:34:07.914Z,38.10
2019-05-20T05:35:07.900Z,36.50
2019-05-20T05:36:07.883Z,36.30
2019-05-20T05:37:07.879Z,34.60
2019-05-20T05:38:08.298Z,35.20
2019-05-20T05:39:07.859Z,35.40
2019-05-20T05:40:08.382Z,34.90
2019-05-20T05:41:07.827Z,33.10
2019-05-20T05:42:07.819Z,35.00
2019-05-20T05:43:07.820Z,35.20
2019-05-20T05:44:07.805Z,35.10
2019-05-20T05:45:07.793Z,33.70
2019-05-20T05:46:07.775Z,35.50
2019-05-20T05:47:07.761Z,33.80
2019-05-20T05:48:07.756Z,34.30
2019-05-20T05:49:07.751Z,34.20
2019-05-20T05:50:07.770Z,33.90
2019-05-20T05:51:07.718Z,32.90
2019-05-20T05:52:07.711Z,32.20
2019-05-20T05:53:07.702Z,32.40
2019-05-20T05:54:07.688Z,34.00
2019-05-20T05:55:07.677Z,34.40
2019-05-20T05:56:07.674Z,33.80
2019-05-20T05:57:07.662Z,34.70
2019-05-20T05:58:08.746Z,33.30
2019-05-20T05:59:07.674Z,33.80
2019-05-20T06:00:07.617Z,35.00
2019-05-20T06:01:07.608Z,33.30
2019-05-20T06:02:07.599Z,32.90
2019-05-20T06:03:07.591Z,32.50
2019-05-20T06:04:07.595Z,34.10
2019-05-20T06:05:07.577Z,32.70
2019-05-20T06:06:13.088Z,33.50
2019-05-20T06:07:08.551Z,33.40
2019-05-20T06:08:07.549Z,33.90
2019-05-20T06:09:07.522Z,32.20
2019-05-20T06:10:07.522Z,32.40
2019-05-20T06:11:07.542Z,33.20
2019-05-20T06:12:07.515Z,32.20
2019-05-20T06:13:07.485Z,33.00
2019-05-20T06:14:07.474Z,32.40
2019-05-20T06:15:07.461Z,32.20
2019-05-20T06:16:07.447Z,32.70
2019-05-20T06:17:07.469Z,31.50
2019-05-20T06:18:07.428Z,32.40
2019-05-20T06:19:07.419Z,31.60
2019-05-20T06:20:07.415Z,31.30
2019-05-20T06:21:07.393Z,32.00
2019-05-20T06:22:07.388Z,33.00
2019-05-20T06:23:07.376Z,31.90
2019-05-20T06:24:07.359Z,32.60
2019-05-20T06:25:07.347Z,31.50
2019-05-20T06:26:07.349Z,30.90
2019-05-20T06:27:07.328Z,31.00
2019-05-20T06:28:07.321Z,31.60
2019-05-20T06:29:07.303Z,31.20
2019-05-20T06:30:07.301Z,30.30
2019-05-20T06:31:07.292Z,31.20
2019-05-20T06:32:07.273Z,30.30
2019-05-20T06:33:07.264Z,30.20
2019-05-20T06:34:07.286Z,30.20
2019-05-20T06:35:07.282Z,30.20
2019-05-20T06:36:07.250Z,31.20
2019-05-20T06:37:07.230Z,30.50
2019-05-20T06:38:07.205Z,30.10
2019-05-20T06:39:07.196Z,30.20
2019-05-20T06:40:07.186Z,30.40
2019-05-20T06:41:07.180Z,30.00
2019-05-20T06:42:07.181Z,28.70
2019-05-20T06:43:07.152Z,27.90
2019-05-20T06:44:07.159Z,29.50
2019-05-20T06:45:07.145Z,29.10
2019-05-20T06:46:07.131Z,27.90
2019-05-20T06:47:07.115Z,28.30
2019-05-20T06:48:07.097Z,27.40
2019-05-20T06:49:07.087Z,27.10
2019-05-20T06:50:07.079Z,28.50
2019-05-20T06:51:07.064Z,28.40
2019-05-20T06:52:07.050Z,28.80
2019-05-20T06:53:07.047Z,28.00
2019-05-20T06:54:07.029Z,27.50
2019-05-20T06:55:07.072Z,27.40
2019-05-20T06:56:07.010Z,28.00
2019-05-20T06:57:07.036Z,26.70
2019-05-20T06:58:07.006Z,26.80
2019-05-20T06:59:06.973Z,26.10
2019-05-20T07:00:06.962Z,25.50
2019-05-20T07:01:06.954Z,25.50
2019-05-20T07:02:06.939Z,25.00
2019-05-20T07:03:06.927Z,25.10
2019-05-20T07:04:06.936Z,24.70
2019-05-20T07:05:06.915Z,24.80
2019-05-20T07:06:06.901Z,24.10
2019-05-20T07:07:19.934Z,24.80
2019-05-20T07:08:07.882Z,24.40
2019-05-20T07:09:06.899Z,24.80
2019-05-20T07:10:06.862Z,24.40
2019-05-20T07:11:06.840Z,24.60
2019-05-20T07:12:06.849Z,23.90
2019-05-20T07:13:06.864Z,23.80
2019-05-20T07:14:06.834Z,23.60
2019-05-20T07:15:06.812Z,23.60
2019-05-20T07:16:06.806Z,23.30
2019-05-20T07:17:06.781Z,24.20
2019-05-20T07:18:06.766Z,23.60
2019-05-20T07:19:06.769Z,22.90
2019-05-20T07:20:06.788Z,23.70
2019-05-20T07:21:06.741Z,23.80
2019-05-20T07:22:06.730Z,24.30
2019-05-20T07:23:06.720Z,22.40
2019-05-20T07:24:06.704Z,23.50
2019-05-20T07:25:06.694Z,22.20
2019-05-20T07:26:06.691Z,22.70
2019-05-20T07:27:06.671Z,22.30
2019-05-20T07:28:06.662Z,21.90
2019-05-20T07:29:06.647Z,22.70
2019-05-20T07:30:06.636Z,22.80
2019-05-20T07:31:06.650Z,21.80
2019-05-20T07:32:06.619Z,21.60
2019-05-20T07:33:06.632Z,22.90
2019-05-20T07:34:06.596Z,22.70
2019-05-20T07:35:06.582Z,21.80
2019-05-20T07:36:10.015Z,22.00
2019-05-20T07:37:06.594Z,23.00
2019-05-20T07:38:06.553Z,22.20
2019-05-20T07:39:06.538Z,22.30
2019-05-20T07:40:06.529Z,22.40
2019-05-20T07:41:06.518Z,22.10
2019-05-20T07:42:06.512Z,21.90
2019-05-20T07:43:06.521Z,22.30
2019-05-20T07:44:06.508Z,22.20
2019-05-20T07:45:06.484Z,21.70
2019-05-20T07:46:06.465Z,20.80
2019-05-20T07:47:06.451Z,22.20
2019-05-20T07:48:06.481Z,21.40
2019-05-20T07:49:06.444Z,22.00
2019-05-20T07:50:06.423Z,22.20
2019-05-20T07:51:06.401Z,22.10
2019-05-20T07:52:06.423Z,21.50
2019-05-20T07:53:06.437Z,21.20
2019-05-20T07:54:06.399Z,21.20
2019-05-20T07:55:06.365Z,21.80
2019-05-20T07:56:06.362Z,21.10
2019-05-20T07:57:06.338Z,22.10
2019-05-20T07:58:06.330Z,21.70
2019-05-20T07:59:06.332Z,20.60
2019-05-20T08:00:06.304Z,20.90
2019-05-20T08:01:06.292Z,21.00
2019-05-20T08:02:06.296Z,20.40
2019-05-20T08:03:06.280Z,21.50
2019-05-20T08:04:06.275Z,22.40
2019-05-20T08:05:06.281Z,22.00
2019-05-20T08:06:06.245Z,21.60
2019-05-20T08:07:26.273Z,21.60
2019-05-20T08:08:07.212Z,21.30
2019-05-20T08:09:06.229Z,20.60
2019-05-20T08:10:06.197Z,21.00
2019-05-20T08:11:06.199Z,21.30
2019-05-20T08:12:06.183Z,21.00
2019-05-20T08:13:06.161Z,21.00
2019-05-20T08:14:06.185Z,21.60
2019-05-20T08:15:06.136Z,21.10
2019-05-20T08:16:06.126Z,21.40
2019-05-20T08:17:06.127Z,20.30
2019-05-20T08:18:06.109Z,20.10
2019-05-20T08:19:06.131Z,20.10
2019-05-20T08:20:06.093Z,20.50
2019-05-20T08:21:06.083Z,20.30
2019-05-20T08:22:06.063Z,19.80
2019-05-20T08:23:06.061Z,20.60
2019-05-20T08:24:06.050Z,19.70
2019-05-20T08:25:06.073Z,20.30
2019-05-20T08:26:06.023Z,20.50
2019-05-20T08:27:06.033Z,20.70
2019-05-20T08:28:06.002Z,20.50
2019-05-20T08:29:05.993Z,20.50
2019-05-20T08:30:05.978Z,19.80
2019-05-20T08:31:06.014Z,19.10
2019-05-20T08:32:05.964Z,19.30
2019-05-20T08:33:05.954Z,20.00
2019-05-20T08:34:05.938Z,19.70
2019-05-20T08:35:05.939Z,19.40
2019-05-20T08:36:05.919Z,19.60
2019-05-20T08:37:05.917Z,19.60
2019-05-20T08:38:05.890Z,20.50
2019-05-20T08:39:05.886Z,19.40
2019-05-20T08:40:05.873Z,19.20
2019-05-20T08:41:05.874Z,18.90
2019-05-20T08:42:05.879Z,19.70
2019-05-20T08:43:05.869Z,19.80
2019-05-20T08:44:05.830Z,19.50
2019-05-20T08:45:05.829Z,19.40
2019-05-20T08:46:05.811Z,19.10
2019-05-20T08:47:05.848Z,18.80
2019-05-20T08:48:05.790Z,19.00
2019-05-20T08:49:10.891Z,18.50
2019-05-20T08:50:11.383Z,18.80
2019-05-20T08:51:06.752Z,18.80
2019-05-20T08:52:05.746Z,19.00
2019-05-20T08:53:05.746Z,19.00
2019-05-20T08:54:05.734Z,18.90
2019-05-20T08:55:05.711Z,18.90
2019-05-20T08:56:05.707Z,19.00
2019-05-20T08:57:05.699Z,19.20
2019-05-20T08:58:05.680Z,18.60
2019-05-20T08:59:05.679Z,18.60
2019-05-20T09:00:05.678Z,18.30
2019-05-20T09:01:06.220Z,18.60
2019-05-20T09:02:05.639Z,19.20
2019-05-20T09:03:05.630Z,18.60
2019-05-20T09:04:05.640Z,18.40
2019-05-20T09:05:05.607Z,18.20
2019-05-20T09:06:05.612Z,18.50
2019-05-20T09:07:05.583Z,18.70
2019-05-20T09:08:05.584Z,19.40
2019-05-20T09:09:05.559Z,18.80
2019-05-20T09:10:05.550Z,19.00
2019-05-20T09:11:05.541Z,19.10
2019-05-20T09:12:05.552Z,18.70
2019-05-20T09:13:05.525Z,18.10
2019-05-20T09:14:05.510Z,18.80
2019-05-20T09:15:05.496Z,19.00
2019-05-20T09:16:05.509Z,18.30
2019-05-20T09:17:05.479Z,19.10
2019-05-20T09:18:05.465Z,19.70
2019-05-20T09:19:05.468Z,18.60
2019-05-20T09:20:05.450Z,19.40
2019-05-20T09:21:05.438Z,19.60
2019-05-20T09:22:05.441Z,19.00
2019-05-20T09:23:05.442Z,19.00
2019-05-20T09:24:05.435Z,18.60
2019-05-20T09:25:05.507Z,19.10
2019-05-20T09:26:05.381Z,19.70
2019-05-20T09:27:05.372Z,19.10
2019-05-20T09:28:05.368Z,20.30
2019-05-20T09:29:05.361Z,19.80
2019-05-20T09:30:05.342Z,19.50
2019-05-20T09:31:05.336Z,19.50
2019-05-20T09:32:05.328Z,19.70
2019-05-20T09:33:05.307Z,20.00
2019-05-20T09:34:05.313Z,19.20
2019-05-20T09:35:05.288Z,19.60
2019-05-20T09:36:05.276Z,19.20
2019-05-20T09:37:05.265Z,19.40
2019-05-20T09:38:17.809Z,19.10
2019-05-20T09:39:06.263Z,19.70
2019-05-20T09:40:05.239Z,19.90
2019-05-20T09:41:05.269Z,18.90
2019-05-20T09:42:05.216Z,19.60
2019-05-20T09:43:05.230Z,19.60
2019-05-20T09:44:05.214Z,18.40
2019-05-20T09:45:05.229Z,18.70
2019-05-20T09:46:08.056Z,18.60
2019-05-20T09:47:05.163Z,19.10
2019-05-20T09:48:05.154Z,18.70
2019-05-20T09:49:05.218Z,18.70
2019-05-20T09:50:05.137Z,18.00
2019-05-20T09:51:05.153Z,18.40
2019-05-20T09:52:05.125Z,19.00
2019-05-20T09:53:07.126Z,18.20
2019-05-20T09:54:05.107Z,19.30
2019-05-20T09:55:05.082Z,18.20
2019-05-20T09:56:05.075Z,18.50
2019-05-20T09:57:05.066Z,19.20
2019-05-20T09:58:05.051Z,18.60
2019-05-20T09:59:05.039Z,18.40
2019-05-20T10:00:05.032Z,18.40
2019-05-20T10:01:05.019Z,18.90
2019-05-20T10:02:05.014Z,18.90
2019-05-20T10:03:05.844Z,19.00
2019-05-20T10:04:04.985Z,18.90
2019-05-20T10:05:04.983Z,18.80
2019-05-20T10:06:04.966Z,18.90
2019-05-20T10:07:04.952Z,18.80
2019-05-20T10:08:04.938Z,19.00
2019-05-20T10:09:04.969Z,18.60
2019-05-20T10:10:04.928Z,18.70
2019-05-20T10:11:04.911Z,18.50
2019-05-20T10:12:04.945Z,19.40
2019-05-20T10:13:04.952Z,18.60
2019-05-20T10:14:04.880Z,19.30
2019-05-20T10:15:04.879Z,19.20
2019-05-20T10:16:04.856Z,19.50
2019-05-20T10:17:04.870Z,19.70
2019-05-20T10:18:04.839Z,20.00
2019-05-20T10:19:04.840Z,19.20
2019-05-20T10:20:04.812Z,19.50
2019-05-20T10:21:04.819Z,18.80
2019-05-20T10:22:04.889Z,18.50
2019-05-20T10:23:04.888Z,18.80
2019-05-20T10:24:04.780Z,18.30
2019-05-20T10:25:04.759Z,18.60
2019-05-20T10:26:04.761Z,19.20
2019-05-20T10:27:04.746Z,18.70
2019-05-20T10:28:04.729Z,19.10
2019-05-20T10:29:04.732Z,18.70
2019-05-20T10:30:04.713Z,19.00
2019-05-20T10:31:04.711Z,18.50
2019-05-20T10:32:04.688Z,19.50
2019-05-20T10:33:09.400Z,20.00
2019-05-20T10:34:05.669Z,20.00
2019-05-20T10:35:04.723Z,18.60
2019-05-20T10:36:04.651Z,19.40
2019-05-20T10:37:04.637Z,19.80
2019-05-20T10:38:04.629Z,19.90
2019-05-20T10:39:07.725Z,19.90
2019-05-20T10:40:04.631Z,20.20
2019-05-20T10:41:04.601Z,20.10
2019-05-20T10:42:04.590Z,19.40
2019-05-20T10:43:04.590Z,19.80
2019-05-20T10:44:04.559Z,18.70
2019-05-20T10:45:04.552Z,18.60
2019-05-20T10:46:04.552Z,19.00
2019-05-20T10:47:04.545Z,20.20
2019-05-20T10:48:08.391Z,19.80
2019-05-20T10:49:04.505Z,19.20
2019-05-20T10:50:04.499Z,19.00
2019-05-20T10:51:04.485Z,19.30
2019-05-20T10:52:04.491Z,18.80
2019-05-20T10:53:04.491Z,18.60
2019-05-20T10:54:04.639Z,20.90
2019-05-20T10:55:04.482Z,19.10
2019-05-20T10:56:04.461Z,24.40
2019-05-20T10:57:04.456Z,19.20
2019-05-20T10:58:04.415Z,18.30
2019-05-20T10:59:04.406Z,18.30
2019-05-20T11:00:04.392Z,17.10
2019-05-20T11:01:04.385Z,17.80
2019-05-20T11:02:04.372Z,17.70
2019-05-20T11:03:04.371Z,17.90
2019-05-20T11:04:04.355Z,18.10
2019-05-20T11:05:04.342Z,17.60
2019-05-20T11:06:04.336Z,18.40
2019-05-20T11:07:04.324Z,18.60
2019-05-20T11:08:04.309Z,17.80
2019-05-20T11:09:13.589Z,19.00
2019-05-20T11:10:05.281Z,19.40
2019-05-20T11:11:04.329Z,19.00
2019-05-20T11:12:04.268Z,18.30
2019-05-20T11:13:04.255Z,18.10
2019-05-20T11:14:04.259Z,19.20
2019-05-20T11:15:04.226Z,18.80
2019-05-20T11:16:04.237Z,19.00
2019-05-20T11:17:04.224Z,18.80
2019-05-20T11:18:04.203Z,19.30
2019-05-20T11:19:04.204Z,19.50
2019-05-20T11:20:04.178Z,19.40
2019-05-20T11:21:04.167Z,19.10
2019-05-20T11:22:04.151Z,19.00
2019-05-20T11:23:04.149Z,19.40
2019-05-20T11:24:04.169Z,19.10
2019-05-20T11:25:04.120Z,18.70
2019-05-20T11:26:04.107Z,18.10
2019-05-20T11:27:04.103Z,18.60
2019-05-20T11:28:04.092Z,18.80
2019-05-20T11:29:04.089Z,19.10
2019-05-20T11:30:04.083Z,19.30
2019-05-20T11:31:04.059Z,19.20
2019-05-20T11:32:04.044Z,19.00
2019-05-20T11:33:04.040Z,18.60
2019-05-20T11:34:04.025Z,18.40
2019-05-20T11:35:04.027Z,18.10
2019-05-20T11:36:04.004Z,18.60
2019-05-20T11:37:04.024Z,18.20
2019-05-20T11:38:03.980Z,18.50
2019-05-20T11:39:06.699Z,17.90
2019-05-20T11:40:04.771Z,18.50
2019-05-20T11:41:03.947Z,18.60
2019-05-20T11:42:03.941Z,18.40
2019-05-20T11:43:03.933Z,18.70
2019-05-20T11:44:03.917Z,18.60
2019-05-20T11:45:03.911Z,19.20
2019-05-20T11:46:03.931Z,18.00
2019-05-20T11:47:03.905Z,17.50
2019-05-20T11:48:03.874Z,18.50
2019-05-20T11:49:03.864Z,18.30
2019-05-20T11:50:03.864Z,18.10
2019-05-20T11:51:03.855Z,18.20
2019-05-20T11:52:04.211Z,18.20
2019-05-20T11:53:03.828Z,18.00
2019-05-20T11:54:03.809Z,18.10
2019-05-20T11:55:03.804Z,18.60
2019-05-20T11:56:03.804Z,18.10
2019-05-20T11:57:03.787Z,17.80
2019-05-20T11:58:15.149Z,18.30
2019-05-20T11:59:04.757Z,17.90
2019-05-20T12:00:03.749Z,18.40
2019-05-20T12:01:03.735Z,18.80
2019-05-20T12:02:04.274Z,18.00
2019-05-20T12:03:03.716Z,18.70
2019-05-20T12:04:03.714Z,18.70
2019-05-20T12:05:03.707Z,19.40
2019-05-20T12:06:04.354Z,18.80
2019-05-20T12:07:03.683Z,19.30
2019-05-20T12:08:03.668Z,18.20
2019-05-20T12:09:03.665Z,18.60
2019-05-20T12:10:03.644Z,18.60
2019-05-20T12:11:03.626Z,19.00
2019-05-20T12:12:03.624Z,19.00
2019-05-20T12:13:03.621Z,19.20
2019-05-20T12:14:03.602Z,18.70
2019-05-20T12:15:04.722Z,19.20
2019-05-20T12:16:03.577Z,20.10
2019-05-20T12:17:03.564Z,19.30
2019-05-20T12:18:03.563Z,19.70
2019-05-20T12:19:03.549Z,20.40
2019-05-20T12:20:04.811Z,20.10
2019-05-20T12:21:03.543Z,20.50
2019-05-20T12:22:03.512Z,21.20
2019-05-20T12:23:03.520Z,21.10
2019-05-20T12:24:03.494Z,20.90
2019-05-20T12:25:03.485Z,21.10
2019-05-20T12:26:03.491Z,19.80
2019-05-20T12:27:03.457Z,20.40
2019-05-20T12:28:03.477Z,20.10
2019-05-20T12:29:03.458Z,20.40
2019-05-20T12:30:03.433Z,20.00
2019-05-20T12:31:03.415Z,20.70
2019-05-20T12:32:03.805Z,20.00
2019-05-20T12:33:17.747Z,20.50
2019-05-20T12:34:04.401Z,20.50
2019-05-20T12:35:03.374Z,20.70
2019-05-20T12:36:03.369Z,20.60
2019-05-20T12:37:03.375Z,20.40
2019-05-20T12:38:03.374Z,19.80
2019-05-20T12:39:03.348Z,20.00
2019-05-20T12:40:07.609Z,19.50
2019-05-20T12:41:03.313Z,19.80
2019-05-20T12:42:03.460Z,20.60
2019-05-20T12:43:03.295Z,20.80
2019-05-20T12:44:11.469Z,19.40
2019-05-20T12:45:04.272Z,19.60
2019-05-20T12:46:03.270Z,19.30
2019-05-20T12:47:03.262Z,19.70
2019-05-20T12:48:03.256Z,19.30
2019-05-20T12:49:03.389Z,19.50
2019-05-20T12:50:03.247Z,19.50
2019-05-20T12:51:03.211Z,19.20
2019-05-20T12:52:03.244Z,19.90